Time;durP1;ratioP1;P1;durP2;ratioP2;P2;SDS_P1;SDS_P2;PMS_P1;PMS_P2;Temp;Humidity;BMP_temperature;BMP_pressure;BME280_temperature;BME280_humidity;BME280_pressure;Samples;Min_cycle;Max_cycle;Signal;HPM_P1;HPM_P2
2023/04/27 00:00:36;;;;;;;1.00;1.00;;;;;7.10;96039.00;;;;5075282;28;20211;-63
2023/04/27 00:03:06;;;;;;;1.63;1.53;;;;;7.10;96026.00;;;;5075211;28;20282;-63
2023/04/27 00:05:35;;;;;;;1.03;1.03;;;;;7.00;96029.00;;;;5075097;28;20203;-63
2023/04/27 00:08:03;;;;;;;1.20;1.10;;;;;7.00;96032.00;;;;5075650;28;20224;-63
2023/04/27 00:10:30;;;;;;;0.77;0.77;;;;;7.00;96029.00;;;;5073622;28;20277;-63
2023/04/27 00:12:57;;;;;;;5.90;1.20;;;;;7.10;96029.00;;;;5075119;28;20198;-63
2023/04/27 00:15:25;;;;;;;1.00;1.00;;;;;7.10;96026.00;;;;5075181;28;20562;-63
2023/04/27 00:17:52;;;;;;;0.73;0.73;;;;;7.00;96024.00;;;;5074827;28;20650;-63
2023/04/27 00:20:21;;;;;;;0.80;0.80;;;;;7.00;96038.00;;;;5074730;28;20782;-63
2023/04/27 00:22:48;;;;;;;0.80;0.80;;;;;7.00;96035.00;;;;5074829;28;20195;-63
2023/04/27 00:25:16;;;;;;;0.73;0.73;;;;;6.80;96029.00;;;;5074982;28;20191;-63
2023/04/27 00:27:43;;;;;;;1.27;1.20;;;;;6.90;96021.00;;;;5074539;28;20712;-63
2023/04/27 00:30:11;;;;;;;1.80;1.37;;;;;7.00;96027.00;;;;5074621;28;20286;-63
2023/04/27 00:32:39;;;;;;;0.80;0.80;;;;;7.00;96025.00;;;;5075242;28;20208;-63
2023/04/27 00:35:07;;;;;;;0.77;0.77;;;;;7.10;96014.00;;;;5074488;28;20195;-63
2023/04/27 00:37:35;;;;;;;0.90;0.90;;;;;7.00;96015.00;;;;5074739;28;20195;-63
2023/04/27 00:40:06;;;;;;;0.90;0.90;;;;;6.90;96004.00;;;;5074217;28;20217;-63
2023/04/27 00:42:34;;;;;;;1.27;1.27;;;;;6.80;96007.00;;;;5074377;28;20624;-63
2023/04/27 00:45:02;;;;;;;1.33;1.33;;;;;6.80;96001.00;;;;5074287;28;20548;-63
2023/04/27 00:47:30;;;;;;;0.97;0.97;;;;;6.80;96002.00;;;;5074246;28;20280;-63
2023/04/27 00:49:57;;;;;;;0.93;0.93;;;;;6.60;95991.00;;;;5074053;28;20701;-63
2023/04/27 00:52:25;;;;;;;0.90;0.90;;;;;6.60;95993.00;;;;5074401;28;20191;-63
2023/04/27 00:54:56;;;;;;;1.17;1.17;;;;;6.60;95989.00;;;;5074096;28;20200;-63
2023/04/27 00:57:23;;;;;;;0.80;0.80;;;;;6.60;95991.00;;;;5074155;28;20632;-63
2023/04/27 00:59:51;;;;;;;0.70;0.70;;;;;6.70;95998.00;;;;5073920;28;20207;-63
2023/04/27 01:02:18;;;;;;;0.80;0.80;;;;;6.60;96000.00;;;;5074188;28;20196;-63
2023/04/27 01:04:45;;;;;;;1.20;1.20;;;;;6.50;95997.00;;;;5074462;28;20192;-63
2023/04/27 01:07:13;;;;;;;1.00;1.00;;;;;6.60;96009.00;;;;5073738;28;20214;-63
2023/04/27 01:09:40;;;;;;;0.83;0.83;;;;;6.60;96011.00;;;;5073997;28;20223;-62
2023/04/27 01:12:10;;;;;;;0.77;0.77;;;;;6.70;96011.00;;;;5072538;28;20202;-62
2023/04/27 01:14:37;;;;;;;1.00;1.00;;;;;6.60;96011.00;;;;5074200;28;20199;-63
2023/04/27 01:17:05;;;;;;;1.53;1.43;;;;;6.60;96013.00;;;;5073758;28;20256;-63
2023/04/27 01:19:33;;;;;;;1.17;1.07;;;;;6.60;96011.00;;;;5073842;28;20550;-62
2023/04/27 01:22:00;;;;;;;0.97;0.97;;;;;6.50;96019.00;;;;5073593;28;20196;-62
2023/04/27 01:24:29;;;;;;;1.27;1.27;;;;;6.50;96022.00;;;;5072815;28;20671;-63
2023/04/27 01:26:57;;;;;;;2.73;1.70;;;;;6.40;96017.00;;;;5073447;28;20325;-62
2023/04/27 01:29:24;;;;;;;1.30;1.30;;;;;6.20;96017.00;;;;5073311;28;20265;-62
2023/04/27 01:31:51;;;;;;;3.40;1.23;;;;;6.00;96017.00;;;;5073420;28;20188;-62
2023/04/27 01:34:19;;;;;;;1.67;1.57;;;;;6.00;96011.00;;;;5073319;28;20225;-62
2023/04/27 01:36:46;;;;;;;1.00;1.00;;;;;6.00;96015.00;;;;5073363;28;20187;-63
2023/04/27 01:39:13;;;;;;;0.83;0.83;;;;;6.10;96004.00;;;;5073279;28;20222;-63
2023/04/27 01:41:42;;;;;;;0.80;0.80;;;;;6.10;96008.00;;;;5073310;28;20199;-63
2023/04/27 01:44:10;;;;;;;0.80;0.80;;;;;6.00;96005.00;;;;5073308;28;20195;-63
2023/04/27 01:46:38;;;;;;;1.60;0.97;;;;;5.90;96000.00;;;;5073217;28;20289;-63
2023/04/27 01:49:05;;;;;;;0.87;0.87;;;;;6.10;96009.00;;;;5073778;28;20222;-63
2023/04/27 01:51:32;;;;;;;1.10;1.10;;;;;6.30;96008.00;;;;5072740;28;20677;-63
2023/04/27 01:54:12;;;;;;;1.20;1.10;;;;;6.20;96004.00;;;;5073400;28;20175;-63
2023/04/27 01:56:46;;;;;;;0.83;0.83;;;;;6.20;96011.00;;;;5073382;28;20266;-63
2023/04/27 01:59:14;;;;;;;0.80;0.80;;;;;6.20;96006.00;;;;5073371;28;20211;-64
2023/04/27 02:01:41;;;;;;;0.73;0.73;;;;;6.20;96006.00;;;;5073048;28;20183;-63
2023/04/27 02:04:27;;;;;;;1.27;1.23;;;;;6.20;96014.00;;;;5072864;28;20552;-63
2023/04/27 02:06:54;;;;;;;0.87;0.87;;;;;6.20;96018.00;;;;5073222;28;20573;-63
2023/04/27 02:09:33;;;;;;;0.60;0.60;;;;;6.30;96014.00;;;;5073263;28;20228;-63
2023/04/27 02:12:02;;;;;;;0.80;0.80;;;;;6.40;96016.00;;;;5073044;28;20265;-63
2023/04/27 02:14:30;;;;;;;1.67;1.57;;;;;6.40;96013.00;;;;5073426;28;20288;-63
2023/04/27 02:16:57;;;;;;;1.20;1.20;;;;;6.50;96016.00;;;;5073021;28;20252;-63
2023/04/27 02:19:43;;;;;;;1.40;1.30;;;;;6.40;96021.00;;;;5073209;28;20684;-63
2023/04/27 02:22:11;;;;;;;0.80;0.80;;;;;6.50;96010.00;;;;5072905;28;20203;-63
2023/04/27 02:24:50;;;;;;;1.03;1.03;;;;;6.40;96016.00;;;;5072873;28;20658;-63
2023/04/27 03:22:39;;;;;;;0.80;0.80;;;;;5.90;96019.00;;;;5076215;28;20266;-63
2023/04/27 03:25:07;;;;;;;0.70;0.70;;;;;5.80;96022.00;;;;5075874;28;20193;-63
2023/04/27 03:27:35;;;;;;;0.73;0.73;;;;;5.80;96026.00;;;;5075824;28;20207;-63
2023/04/27 03:30:03;;;;;;;1.37;1.37;;;;;5.90;96021.00;;;;5074382;28;20560;-64
2023/04/27 03:32:30;;;;;;;1.03;1.03;;;;;5.80;96019.00;;;;5075878;28;20281;-64
2023/04/27 03:34:58;;;;;;;1.43;1.37;;;;;5.80;96025.00;;;;5075954;28;20261;-62
2023/04/27 03:37:25;;;;;;;1.00;1.00;;;;;5.80;96017.00;;;;5075779;28;20241;-62
2023/04/27 03:39:54;;;;;;;0.70;0.70;;;;;5.90;96023.00;;;;5075616;28;20295;-62
2023/04/27 03:42:22;;;;;;;0.90;0.90;;;;;5.80;96024.00;;;;5075580;28;20243;-62
2023/04/27 03:44:49;;;;;;;1.20;1.20;;;;;5.80;96028.00;;;;5075783;28;20267;-63
2023/04/27 03:47:16;;;;;;;1.57;1.47;;;;;5.70;96030.00;;;;5075457;28;20219;-62
2023/04/27 03:49:44;;;;;;;1.00;1.00;;;;;5.50;96031.00;;;;5075703;28;20221;-63
2023/04/27 03:52:11;;;;;;;1.07;1.07;;;;;5.50;96029.00;;;;5075625;28;20669;-62
2023/04/27 03:54:38;;;;;;;1.27;1.27;;;;;5.60;96016.00;;;;5075481;28;20194;-62
2023/04/27 03:57:07;;;;;;;1.17;1.17;;;;;5.70;96019.00;;;;5075344;28;20198;-62
2023/04/27 03:59:35;;;;;;;0.90;0.90;;;;;5.60;96021.00;;;;5075155;28;20217;-62
2023/04/27 04:02:04;;;;;;;0.70;0.70;;;;;5.50;96016.00;;;;5075219;28;20733;-62
2023/04/27 04:04:31;;;;;;;1.00;1.00;;;;;5.60;96016.00;;;;5075171;28;20217;-63
2023/04/27 04:06:59;;;;;;;1.20;1.20;;;;;5.60;96021.00;;;;5075059;28;20200;-62
2023/04/27 04:09:26;;;;;;;0.70;0.70;;;;;5.60;96024.00;;;;5075316;28;20232;-62
2023/04/27 04:11:53;;;;;;;1.07;1.07;;;;;5.60;96022.00;;;;5074926;28;20217;-62
2023/04/27 04:14:22;;;;;;;0.80;0.80;;;;;5.70;96024.00;;;;5074712;28;20206;-62
2023/04/27 04:16:49;;;;;;;1.00;1.00;;;;;5.70;96028.00;;;;5074865;28;20666;-62
2023/04/27 04:19:17;;;;;;;0.87;0.87;;;;;5.60;96027.00;;;;5074907;28;20221;-62
2023/04/27 04:21:44;;;;;;;1.17;1.17;;;;;5.60;96028.00;;;;5075112;28;20260;-62
2023/04/27 04:24:12;;;;;;;0.97;0.97;;;;;5.60;96027.00;;;;5074850;28;20213;-63
2023/04/27 04:26:39;;;;;;;1.40;1.30;;;;;5.60;96033.00;;;;5074816;28;20202;-63
2023/04/27 04:29:07;;;;;;;1.03;1.03;;;;;5.70;96031.00;;;;5074709;28;20227;-62
2023/04/27 04:31:36;;;;;;;1.43;1.37;;;;;5.70;96030.00;;;;5074952;28;20627;-62
2023/04/27 04:34:03;;;;;;;1.33;1.30;;;;;5.80;96025.00;;;;5074852;28;20199;-62
2023/04/27 04:36:31;;;;;;;1.27;1.17;;;;;5.80;96024.00;;;;5074542;28;20199;-63
2023/04/27 04:38:59;;;;;;;1.10;1.10;;;;;5.90;96025.00;;;;5074720;28;20601;-63
2023/04/27 04:41:26;;;;;;;0.70;0.70;;;;;5.80;96037.00;;;;5074689;28;20241;-63
2023/04/27 04:43:54;;;;;;;0.90;0.90;;;;;5.70;96034.00;;;;5074388;28;20190;-63
2023/04/27 04:46:23;;;;;;;2.23;1.73;;;;;5.70;96032.00;;;;5074375;28;20222;-63
2023/04/27 04:48:52;;;;;;;0.60;0.60;;;;;5.80;96041.00;;;;5074451;28;20236;-63
2023/04/27 04:51:20;;;;;;;0.70;0.70;;;;;5.70;96038.00;;;;5075376;28;20209;-65
2023/04/27 04:53:47;;;;;;;0.70;0.70;;;;;5.70;96046.00;;;;5074225;28;20191;-63
2023/04/27 04:56:15;;;;;;;0.83;0.83;;;;;5.80;96038.00;;;;5074197;28;20196;-63
2023/04/27 04:58:43;;;;;;;0.87;0.87;;;;;5.80;96036.00;;;;5074001;28;20737;-63
2023/04/27 05:01:10;;;;;;;1.20;1.20;;;;;5.90;96030.00;;;;5075024;28;20545;-62
2023/04/27 05:03:37;;;;;;;0.97;0.97;;;;;6.00;96036.00;;;;5074886;28;20674;-64
2023/04/27 05:06:07;;;;;;;1.67;1.57;;;;;6.00;96025.00;;;;5073966;28;20191;-63
2023/04/27 05:08:34;;;;;;;1.10;1.10;;;;;6.10;96032.00;;;;5074123;28;20280;-63
2023/04/27 05:11:02;;;;;;;4.53;3.73;;;;;6.30;96032.00;;;;5073671;28;20221;-63
2023/04/27 05:13:29;;;;;;;19.80;7.93;;;;;6.30;96020.00;;;;5072783;28;20732;-63
2023/04/27 05:15:57;;;;;;;4.43;3.90;;;;;6.40;96032.00;;;;5073951;28;20676;-63
2023/04/27 05:18:24;;;;;;;2.57;2.47;;;;;6.40;96037.00;;;;5073784;28;20215;-63
2023/04/27 05:20:52;;;;;;;0.97;0.97;;;;;6.40;96031.00;;;;5072355;28;20298;-63
2023/04/27 05:23:20;;;;;;;1.10;1.10;;;;;6.30;96040.00;;;;5073701;28;20252;-63
2023/04/27 05:25:48;;;;;;;1.00;1.00;;;;;6.30;96047.00;;;;5073255;28;20206;-63
2023/04/27 05:28:15;;;;;;;1.20;1.10;;;;;6.10;96052.00;;;;5073594;28;20618;-63
2023/04/27 05:30:43;;;;;;;1.03;1.03;;;;;6.30;96047.00;;;;5073438;28;20223;-63
2023/04/27 05:33:10;;;;;;;8.80;2.03;;;;;6.30;96048.00;;;;5073586;28;20195;-63
2023/04/27 05:35:37;;;;;;;1.03;1.03;;;;;6.50;96044.00;;;;5073564;28;20195;-63
2023/04/27 05:38:05;;;;;;;0.97;0.97;;;;;6.30;96049.00;;;;5073469;28;20188;-63
2023/04/27 05:40:33;;;;;;;0.83;0.83;;;;;6.40;96047.00;;;;5072057;28;20624;-63
2023/04/27 05:43:04;;;;;;;0.60;0.60;;;;;6.40;96055.00;;;;5073690;28;20709;-63
2023/04/27 05:45:31;;;;;;;0.60;0.60;;;;;6.60;96044.00;;;;5073453;28;20205;-63
2023/04/27 05:47:59;;;;;;;0.80;0.80;;;;;6.40;96056.00;;;;5073410;28;20210;-63
2023/04/27 05:50:26;;;;;;;1.50;1.23;;;;;6.60;96057.00;;;;5073462;28;20273;-64
2023/04/27 05:52:53;;;;;;;0.90;0.90;;;;;6.80;96058.00;;;;5073290;28;20191;-63
2023/04/27 05:55:21;;;;;;;0.57;0.57;;;;;7.00;96057.00;;;;5073239;28;20268;-63
2023/04/27 05:57:50;;;;;;;1.00;1.00;;;;;7.20;96073.00;;;;5071922;28;20191;-64
2023/04/27 06:00:21;;;;;;;0.87;0.87;;;;;7.30;96067.00;;;;5071856;28;20264;-63
2023/04/27 06:02:48;;;;;;;1.10;1.10;;;;;7.40;96062.00;;;;5073505;28;20603;-64
2023/04/27 06:05:15;;;;;;;1.20;1.13;;;;;7.60;96068.00;;;;5073200;28;20195;-63
2023/04/27 06:07:43;;;;;;;0.80;0.80;;;;;7.80;96069.00;;;;5073076;28;20299;-63
2023/04/27 06:10:11;;;;;;;0.63;0.63;;;;;7.80;96077.00;;;;5072991;28;20634;-63
2023/04/27 06:12:39;;;;;;;1.30;1.20;;;;;8.00;96080.00;;;;5071831;28;20202;-63
2023/04/27 06:15:09;;;;;;;0.80;0.80;;;;;8.00;96083.00;;;;5073072;28;20220;-63
2023/04/27 06:17:36;;;;;;;0.60;0.60;;;;;7.70;96089.00;;;;5071721;28;20202;-63
2023/04/27 06:20:05;;;;;;;1.23;1.23;;;;;7.80;96086.00;;;;5072832;28;20752;-63
2023/04/27 06:22:33;;;;;;;1.07;1.07;;;;;7.80;96083.00;;;;5073225;28;20754;-63
2023/04/27 06:25:00;;;;;;;1.13;1.03;;;;;7.90;96083.00;;;;5073201;28;20190;-63
2023/04/27 06:27:27;;;;;;;1.67;1.57;;;;;8.00;96081.00;;;;5073262;28;20203;-61
2023/04/27 06:29:55;;;;;;;1.20;1.20;;;;;8.00;96092.00;;;;5069036;28;20223;-61
2023/04/27 06:32:24;;;;;;;1.13;1.13;;;;;8.00;96092.00;;;;5084936;22;20245;-62
2023/04/27 06:34:51;;;;;;;1.43;1.33;;;;;8.10;96089.00;;;;5069881;28;20211;-60
2023/04/27 06:37:19;;;;;;;0.90;0.90;;;;;8.10;96091.00;;;;5070861;28;20200;-62
2023/04/27 06:39:46;;;;;;;1.20;1.20;;;;;8.10;96092.00;;;;5073101;28;20214;-62
2023/04/27 06:42:14;;;;;;;1.00;1.00;;;;;8.30;96085.00;;;;5074597;28;20278;-63
2023/04/27 06:44:41;;;;;;;1.27;1.17;;;;;8.40;96079.00;;;;5074703;28;20674;-62
2023/04/27 06:47:08;;;;;;;0.90;0.90;;;;;8.50;96082.00;;;;5074457;28;20199;-62
2023/04/27 06:49:37;;;;;;;0.80;0.80;;;;;8.70;96087.00;;;;5074474;28;20215;-62
2023/04/27 06:52:06;;;;;;;1.00;1.00;;;;;8.80;96088.00;;;;5074822;28;20553;-62
2023/04/27 06:54:33;;;;;;;1.27;1.27;;;;;8.80;96090.00;;;;5074464;28;20596;-62
2023/04/27 06:57:00;;;;;;;0.87;0.87;;;;;8.90;96091.00;;;;5074612;28;20222;-62
2023/04/27 06:59:28;;;;;;;0.80;0.80;;;;;9.00;96088.00;;;;5073979;28;20199;-62
2023/04/27 07:01:55;;;;;;;0.87;0.87;;;;;9.20;96084.00;;;;5074692;28;20662;-62
2023/04/27 07:04:23;;;;;;;1.40;1.40;;;;;9.20;96085.00;;;;5073774;28;20225;-62
2023/04/27 07:06:52;;;;;;;1.30;1.23;;;;;9.30;96092.00;;;;5056583;28;20199;-63
2023/04/27 07:09:20;;;;;;;3.23;2.13;;;;;9.40;96090.00;;;;5072734;28;20223;-62
2023/04/27 07:11:47;;;;;;;1.40;1.30;;;;;9.60;96093.00;;;;5074471;28;20223;-63
2023/04/27 07:14:14;;;;;;;1.00;1.00;;;;;9.70;96093.00;;;;5073937;28;20215;-62
2023/04/27 07:16:43;;;;;;;3.10;1.73;;;;;10.00;96084.00;;;;5073997;28;20201;-62
2023/04/27 07:19:10;;;;;;;1.20;1.20;;;;;10.20;96091.00;;;;5073417;28;20192;-62
2023/04/27 07:21:37;;;;;;;0.97;0.97;;;;;10.40;96087.00;;;;5074312;28;20252;-62
2023/04/27 07:24:07;;;;;;;0.90;0.90;;;;;10.70;96085.00;;;;5070853;28;20222;-63
2023/04/27 07:26:35;;;;;;;0.93;0.93;;;;;11.00;96081.00;;;;5073161;28;20205;-63
2023/04/27 07:29:02;;;;;;;2.83;1.53;;;;;11.30;96088.00;;;;5073278;28;20229;-62
2023/04/27 07:31:30;;;;;;;1.23;1.23;;;;;11.20;96083.00;;;;5074467;28;20221;-62
2023/04/27 07:33:59;;;;;;;1.00;1.00;;;;;11.50;96082.00;;;;5073218;28;20231;-62
2023/04/27 07:36:27;;;;;;;1.20;1.10;;;;;11.60;96076.00;;;;5051541;28;20196;-63
2023/04/27 07:38:57;;;;;;;0.80;0.80;;;;;11.70;96082.00;;;;5073281;28;20199;-62
2023/04/27 07:41:26;;;;;;;0.93;0.93;;;;;11.90;96077.00;;;;5073976;28;20203;-62
2023/04/27 07:43:53;;;;;;;1.30;1.20;;;;;12.00;96074.00;;;;5073094;28;20269;-62
2023/04/27 07:46:21;;;;;;;2.10;1.23;;;;;11.60;96074.00;;;;5073791;28;20200;-62
2023/04/27 07:48:49;;;;;;;1.00;1.00;;;;;11.80;96072.00;;;;5072379;28;20272;-62
2023/04/27 07:51:17;;;;;;;0.73;0.73;;;;;12.10;96070.00;;;;5073568;28;20195;-62
2023/04/27 07:53:45;;;;;;;0.70;0.70;;;;;12.20;96074.00;;;;5055311;28;20219;-62
2023/04/27 07:56:12;;;;;;;0.90;0.90;;;;;12.30;96077.00;;;;5055454;28;20286;-62
2023/04/27 07:58:41;;;;;;;3.30;1.30;;;;;12.30;96071.00;;;;5073216;28;20199;-62
2023/04/27 08:01:08;;;;;;;1.47;1.37;;;;;12.40;96072.00;;;;5072997;28;20199;-62
2023/04/27 08:03:36;;;;;;;1.10;1.00;;;;;12.50;96070.00;;;;5073134;28;20252;-62
2023/04/27 08:06:03;;;;;;;0.80;0.80;;;;;12.60;96073.00;;;;5073207;28;20201;-62
2023/04/27 08:08:30;;;;;;;1.03;1.03;;;;;12.90;96077.00;;;;5072937;28;20225;-62
2023/04/27 08:10:58;;;;;;;1.03;1.03;;;;;13.00;96071.00;;;;5073098;28;20551;-62
2023/04/27 08:13:25;;;;;;;1.13;1.00;;;;;13.10;96066.00;;;;5072803;28;20231;-62
2023/04/27 08:15:57;;;;;;;0.93;0.90;;;;;13.30;96068.00;;;;5072890;28;20203;-62
2023/04/27 08:18:24;;;;;;;0.93;0.93;;;;;13.20;96070.00;;;;5072963;28;20194;-60
2023/04/27 08:20:52;;;;;;;1.07;1.07;;;;;13.20;96076.00;;;;5072738;28;20203;-61
2023/04/27 08:23:20;;;;;;;0.70;0.70;;;;;13.20;96078.00;;;;5054845;28;20227;-62
2023/04/27 08:25:47;;;;;;;0.70;0.70;;;;;13.30;96071.00;;;;5072774;28;20206;-61
2023/04/27 08:28:15;;;;;;;1.03;1.03;;;;;13.40;96057.00;;;;5072572;28;20195;-61
2023/04/27 08:30:43;;;;;;;0.70;0.70;;;;;13.60;96053.00;;;;5072677;28;20209;-61
2023/04/27 08:33:12;;;;;;;0.77;0.77;;;;;13.70;96057.00;;;;5072222;28;20237;-61
2023/04/27 08:35:39;;;;;;;1.50;1.40;;;;;13.90;96055.00;;;;5072381;28;20195;-61
2023/04/27 08:38:07;;;;;;;1.60;1.50;;;;;14.10;96054.00;;;;5054604;28;20215;-61
2023/04/27 08:40:34;;;;;;;0.87;0.87;;;;;14.30;96051.00;;;;5072437;28;20199;-61
2023/04/27 08:43:01;;;;;;;0.60;0.60;;;;;14.50;96057.00;;;;5072464;28;20632;-61
2023/04/27 08:45:29;;;;;;;0.50;0.50;;;;;14.40;96053.00;;;;5072319;28;20650;-61
2023/04/27 08:47:56;;;;;;;0.80;0.80;;;;;14.40;96057.00;;;;5072209;28;20313;-61
2023/04/27 08:50:25;;;;;;;0.73;0.73;;;;;14.80;96057.00;;;;5054289;28;20717;-61
2023/04/27 08:52:52;;;;;;;0.70;0.70;;;;;14.60;96059.00;;;;5070602;28;20265;-61
2023/04/27 08:55:20;;;;;;;1.03;1.03;;;;;14.50;96055.00;;;;5072496;28;20230;-61
2023/04/27 08:57:57;;;;;;;0.90;0.90;;;;;14.70;96055.00;;;;5072057;28;20228;-61
2023/04/27 09:00:25;;;;;;;1.17;1.17;;;;;14.70;96062.00;;;;5071882;28;20195;-61
2023/04/27 09:02:53;;;;;;;0.80;0.80;;;;;14.50;96065.00;;;;5071770;28;20238;-61
2023/04/27 09:05:22;;;;;;;0.73;0.73;;;;;14.60;96062.00;;;;5072011;28;20199;-61
2023/04/27 09:07:59;;;;;;;0.70;0.70;;;;;14.70;96074.00;;;;5054100;28;20620;-61
2023/04/27 09:10:27;;;;;;;0.87;0.87;;;;;15.00;96059.00;;;;5071914;28;20218;-61
2023/04/27 09:12:59;;;;;;;0.73;0.73;;;;;15.10;96060.00;;;;5071607;28;20223;-61
2023/04/27 09:15:28;;;;;;;0.80;0.80;;;;;15.20;96052.00;;;;5072111;28;20572;-61
2023/04/27 09:17:56;;;;;;;0.83;0.80;;;;;15.30;96060.00;;;;5071753;28;20249;-61
2023/04/27 09:20:25;;;;;;;0.77;0.77;;;;;15.10;96065.00;;;;5053715;28;20256;-61
2023/04/27 09:22:54;;;;;;;1.00;1.00;;;;;15.20;96066.00;;;;5071568;28;20246;-61
2023/04/27 09:25:28;;;;;;;0.90;0.90;;;;;15.20;96063.00;;;;5071810;28;20294;-61
2023/04/27 09:27:56;;;;;;;1.93;1.63;;;;;15.40;96062.00;;;;5071273;28;20209;-61
2023/04/27 09:30:24;;;;;;;0.70;0.70;;;;;15.70;96058.00;;;;5071650;28;20301;-61
2023/04/27 09:32:53;;;;;;;1.13;1.10;;;;;15.20;96061.00;;;;5053305;28;20323;-61
2023/04/27 09:35:25;;;;;;;0.70;0.70;;;;;15.50;96060.00;;;;5070121;28;20647;-61
2023/04/27 09:37:54;;;;;;;0.83;0.83;;;;;15.70;96068.00;;;;5070754;28;20229;-61
2023/04/27 09:40:25;;;;;;;0.67;0.67;;;;;15.80;96059.00;;;;5071101;28;20191;-61
2023/04/27 09:42:55;;;;;;;0.93;0.93;;;;;15.60;96067.00;;;;5070840;28;20211;-61
2023/04/27 09:45:24;;;;;;;0.93;0.93;;;;;15.80;96065.00;;;;5066669;28;20195;-61
2023/04/27 09:47:51;;;;;;;1.37;1.33;;;;;15.80;96069.00;;;;5071288;28;20204;-61
2023/04/27 09:50:20;;;;;;;0.80;0.80;;;;;15.90;96069.00;;;;5071139;28;20219;-61
2023/04/27 09:52:48;;;;;;;1.20;1.10;;;;;15.80;96060.00;;;;5071023;28;20215;-61
2023/04/27 09:55:19;;;;;;;1.07;1.03;;;;;15.70;96069.00;;;;5071197;28;20201;-61
2023/04/27 09:57:58;;;;;;;0.70;0.70;;;;;15.80;96072.00;;;;5071247;28;20615;-61
2023/04/27 10:00:42;;;;;;;0.80;0.80;;;;;15.80;96059.00;;;;5071206;28;20187;-62
2023/04/27 10:03:18;;;;;;;0.90;0.90;;;;;16.00;96065.00;;;;5071230;28;20301;-62
2023/04/27 10:06:27;;;;;;;1.00;1.00;;;;;15.40;96064.00;;;;5071239;28;20232;-62
2023/04/27 10:08:58;;;;;;;0.80;0.80;;;;;15.70;96069.00;;;;5070459;28;20207;-61
2023/04/27 10:11:38;;;;;;;0.80;0.80;;;;;15.50;96067.00;;;;5068504;28;20194;-62
2023/04/27 10:14:09;;;;;;;0.60;0.60;;;;;15.60;96068.00;;;;5069802;28;20618;-62
2023/04/27 10:16:46;;;;;;;0.67;0.67;;;;;15.80;96063.00;;;;5071488;28;20191;-61
2023/04/27 10:19:14;;;;;;;1.47;1.17;;;;;16.00;96065.00;;;;5070621;28;20187;-62
2023/04/27 10:21:53;;;;;;;1.60;1.60;;;;;16.10;96078.00;;;;5071354;28;20199;-63
2023/04/27 10:24:30;;;;;;;1.20;1.20;;;;;16.20;96069.00;;;;5070584;28;20257;-61
2023/04/27 10:27:04;;;;;;;0.50;0.50;;;;;16.40;96059.00;;;;5071124;28;20187;-61
2023/04/27 10:29:44;;;;;;;0.70;0.70;;;;;16.60;96052.00;;;;5070788;28;20253;-61
2023/04/27 10:32:13;;;;;;;1.37;1.27;;;;;16.60;96053.00;;;;5071212;28;20188;-61
2023/04/27 10:34:42;;;;;;;1.30;1.23;;;;;16.00;96065.00;;;;5070462;28;20195;-61
2023/04/27 10:37:11;;;;;;;0.97;0.97;;;;;16.20;96069.00;;;;5071023;28;20276;-61
2023/04/27 10:39:39;;;;;;;0.70;0.70;;;;;16.00;96060.00;;;;5070561;28;20204;-61
2023/04/27 10:42:08;;;;;;;0.70;0.70;;;;;16.10;96067.00;;;;5070706;28;20257;-61
2023/04/27 10:44:36;;;;;;;1.00;1.00;;;;;16.00;96060.00;;;;5070456;28;20219;-61
2023/04/27 10:47:15;;;;;;;0.90;0.90;;;;;16.00;96069.00;;;;5070664;28;20358;-61
2023/04/27 10:49:43;;;;;;;0.67;0.67;;;;;15.80;96066.00;;;;5070581;28;20701;-61
2023/04/27 10:52:10;;;;;;;0.80;0.80;;;;;15.20;96060.00;;;;5052793;28;20207;-61
2023/04/27 10:54:38;;;;;;;0.70;0.70;;;;;15.30;96050.00;;;;5070740;28;20195;-61
2023/04/27 10:57:08;;;;;;;4.13;1.37;;;;;15.10;96058.00;;;;5071130;28;20560;-61
2023/04/27 10:59:46;;;;;;;0.70;0.70;;;;;15.50;96062.00;;;;5070107;28;20191;-61
2023/04/27 11:02:15;;;;;;;0.63;0.63;;;;;15.70;96071.00;;;;5066769;28;20191;-62
2023/04/27 11:04:43;;;;;;;0.63;0.63;;;;;15.80;96064.00;;;;5070129;28;20682;-61
2023/04/27 11:07:11;;;;;;;0.97;0.97;;;;;16.30;96053.00;;;;5071044;28;20592;-61
2023/04/27 11:09:39;;;;;;;1.10;1.10;;;;;16.90;96049.00;;;;5070100;28;20302;-61
2023/04/27 11:12:08;;;;;;;1.17;1.03;;;;;17.00;96033.00;;;;5070855;28;20217;-61
2023/04/27 11:14:36;;;;;;;0.87;0.87;;;;;17.20;96042.00;;;;5070259;28;20224;-61
2023/04/27 11:17:04;;;;;;;0.50;0.50;;;;;17.00;96043.00;;;;5052263;28;20227;-61
2023/04/27 11:19:33;;;;;;;1.50;1.43;;;;;17.30;96039.00;;;;5070326;28;20199;-61
2023/04/27 11:22:05;;;;;;;1.47;1.10;;;;;17.40;96046.00;;;;5070326;28;20203;-61
2023/04/27 11:24:32;;;;;;;0.70;0.70;;;;;17.10;96052.00;;;;5071114;28;20249;-61
2023/04/27 11:27:00;;;;;;;1.47;0.93;;;;;16.90;96059.00;;;;5073784;28;20218;-61
2023/04/27 11:29:38;;;;;;;0.60;0.60;;;;;16.60;96055.00;;;;5073847;28;20317;-62
2023/04/27 11:32:06;;;;;;;0.50;0.50;;;;;16.20;96069.00;;;;5073990;28;20552;-62
2023/04/27 11:34:37;;;;;;;0.70;0.70;;;;;16.50;96067.00;;;;5073646;28;20227;-61
2023/04/27 11:37:07;;;;;;;0.70;0.70;;;;;16.70;96054.00;;;;5055685;28;20572;-61
2023/04/27 11:39:40;;;;;;;0.80;0.80;;;;;16.80;96045.00;;;;5074114;28;20196;-62
2023/04/27 11:42:18;;;;;;;1.50;1.40;;;;;17.30;96038.00;;;;5073744;28;20194;-61
2023/04/27 11:44:53;;;;;;;0.70;0.70;;;;;17.90;96043.00;;;;5073141;28;20208;-62
2023/04/27 11:47:21;;;;;;;1.10;1.10;;;;;18.20;96043.00;;;;5074077;28;20272;-61
2023/04/27 11:49:51;;;;;;;0.50;0.50;;;;;18.30;96040.00;;;;5073500;28;20227;-61
2023/04/27 11:52:19;;;;;;;0.70;0.70;;;;;18.40;96047.00;;;;5073312;28;20191;-62
2023/04/27 11:54:51;;;;;;;1.03;1.00;;;;;18.10;96044.00;;;;5073323;28;20192;-61
2023/04/27 11:57:24;;;;;;;0.83;0.83;;;;;18.20;96040.00;;;;5073492;28;20202;-61
2023/04/27 11:59:52;;;;;;;0.57;0.57;;;;;18.30;96036.00;;;;5073481;28;20218;-61
2023/04/27 12:02:20;;;;;;;0.80;0.80;;;;;18.10;96045.00;;;;5073264;28;20603;-61
2023/04/27 12:04:50;;;;;;;1.07;1.07;;;;;18.00;96035.00;;;;5073811;28;20219;-62
2023/04/27 12:07:17;;;;;;;0.80;0.80;;;;;17.70;96034.00;;;;5069679;28;20207;-62
2023/04/27 12:09:45;;;;;;;0.80;0.80;;;;;17.60;96038.00;;;;5051072;28;20716;-62
2023/04/27 12:12:15;;;;;;;2.83;1.03;;;;;17.50;96034.00;;;;5073029;28;20211;-62
2023/04/27 12:14:43;;;;;;;0.70;0.70;;;;;17.70;96039.00;;;;5073490;28;20237;-62
2023/04/27 12:17:10;;;;;;;0.70;0.70;;;;;17.70;96036.00;;;;5054928;28;20211;-62
2023/04/27 12:19:38;;;;;;;0.70;0.70;;;;;17.80;96036.00;;;;5073009;28;20187;-62
2023/04/27 12:22:07;;;;;;;1.90;1.37;;;;;17.80;96030.00;;;;5054857;28;20195;-62
2023/04/27 12:24:35;;;;;;;0.67;0.67;;;;;17.60;96027.00;;;;5072855;28;20215;-62
2023/04/27 12:27:03;;;;;;;1.07;1.07;;;;;17.30;96040.00;;;;5054798;28;20641;-62
2023/04/27 12:29:31;;;;;;;0.60;0.60;;;;;17.40;96036.00;;;;5072427;28;20257;-62
2023/04/27 12:31:59;;;;;;;0.80;0.80;;;;;16.80;96047.00;;;;5072643;28;20199;-62
2023/04/27 12:34:28;;;;;;;0.60;0.60;;;;;16.40;96049.00;;;;5053500;28;20238;-62
2023/04/27 12:36:55;;;;;;;0.70;0.70;;;;;16.50;96043.00;;;;5054543;28;20724;-62
2023/04/27 12:39:24;;;;;;;0.63;0.63;;;;;16.60;96037.00;;;;5071885;28;20195;-62
2023/04/27 12:41:53;;;;;;;0.70;0.70;;;;;16.80;96039.00;;;;5072955;28;20202;-62
2023/04/27 12:44:21;;;;;;;0.60;0.60;;;;;16.60;96045.00;;;;5072266;28;20770;-62
2023/04/27 12:46:49;;;;;;;0.70;0.70;;;;;16.80;96020.00;;;;5072004;28;20199;-62
2023/04/27 12:49:17;;;;;;;0.67;0.67;;;;;17.40;96023.00;;;;5071800;28;20249;-62
2023/04/27 12:51:46;;;;;;;0.80;0.80;;;;;17.60;96026.00;;;;5072531;28;20226;-62
2023/04/27 12:54:14;;;;;;;0.60;0.60;;;;;17.50;96031.00;;;;5071795;28;20312;-62
2023/04/27 12:56:43;;;;;;;0.60;0.60;;;;;17.60;96030.00;;;;5072508;28;20191;-62
2023/04/27 12:59:10;;;;;;;0.80;0.80;;;;;17.70;96025.00;;;;5072073;28;20242;-62
2023/04/27 13:01:38;;;;;;;1.27;1.17;;;;;17.70;96022.00;;;;5072206;28;20227;-62
2023/04/27 13:04:06;;;;;;;1.63;1.53;;;;;17.70;96022.00;;;;5072228;28;20234;-62
2023/04/27 13:06:34;;;;;;;1.33;1.00;;;;;17.40;96024.00;;;;5072120;28;20204;-63
2023/04/27 13:09:01;;;;;;;0.60;0.60;;;;;17.30;96018.00;;;;5071914;28;20203;-62
2023/04/27 13:11:29;;;;;;;1.27;0.93;;;;;17.40;96028.00;;;;5071878;28;20257;-62
2023/04/27 13:13:57;;;;;;;0.70;0.70;;;;;17.30;96026.00;;;;5071336;28;20219;-62
2023/04/27 13:16:25;;;;;;;0.60;0.60;;;;;17.50;96023.00;;;;5072238;28;20203;-62
2023/04/27 13:18:54;;;;;;;0.83;0.83;;;;;17.40;96029.00;;;;5071301;28;20201;-62
2023/04/27 13:21:22;;;;;;;0.70;0.70;;;;;17.60;96032.00;;;;5071984;28;20188;-62
2023/04/27 13:23:52;;;;;;;0.90;0.90;;;;;17.40;96024.00;;;;5071244;28;20246;-62
2023/04/27 13:26:19;;;;;;;0.70;0.70;;;;;17.70;96020.00;;;;5072386;28;20196;-62